Alexandria, Egypt

9:31 AM EET on May 01, 2017 (GMT +0200)
Shatby | | Change Station

Elev 59 ft 31.21 °N, 29.92 °E | Updated 7 seconds ago

Mostly Cloudy
Mostly Cloudy
83.8 °F
Feels Like 92 °F
N
0.0
Wind Variable Wind from WNW
Gusts 0.0 mph

Today
High -- | Low -- °F
--% Chance of Precip.
Yesterday
High -- | Low -- °F
Precip. -- in
Pressure 29.83 in
Visibility 6.2 miles
Clouds Scattered Clouds 2000 ft
Mostly Cloudy 9000 ft
Heat Index 92 °F
Dew Point 75 °F
Humidity 75%
Rainfall 0.00 in
Snow Depth Not available.
5:15 AM 6:39 PM
Waxing Crescent, 30% visible
METAR HEAX 010700Z 31009KT 9999 SCT020 BKN090 21/15 Q1010 NOSIG
Pressure 29.83 in
Visibility 6.2 miles
Clouds Scattered Clouds 2000 ft
Mostly Cloudy 9000 ft
Heat Index 92 °F
Dew Point 75 °F
Humidity 75%
Rainfall 0.00 in
Snow Depth Not available.
5:15 AM 6:39 PM
Waxing Crescent, 30% visible
METAR HEAX 010700Z 31009KT 9999 SCT020 BKN090 21/15 Q1010 NOSIG

Get Severe Weather Alerts

Thanks for signing up!

Be on the lookout for a verification email in your inbox.

You'll start receiving the daily forecast at 8 AM.

×

10-Day Weather Forecast

No radar image for this location.
×

Almanac

Astronomy

May. 01, 2017 Rise Set
Actual Time
Civil Twilight
Nautical Twilight
Astronomical Twilight
Moon
Length of Visible Light
Length of Day
Tomorrow will be .
, % of the Moon is Illuminated

Today's Extremes

Country Highs Country Lows

Community

WunderPhotos

WunderBlog® & News

Nearby

Air Quality

  Air Quality AQ Index Pollutant
Not available.

Snow Depth

Station Depth Elevation

Earthquake Activity

City Distance Mag. Time & Date
Minimum magnitude displayed is 2.5.

Coastal Water Temperatures

Place Temperature

Stations

Nearby Weather Stations

Station Location Temp. Windchill Dew Point Humidity Wind Precip. Elev Updated Type